Time;durP1;ratioP1;P1;durP2;ratioP2;P2;SDS_P1;SDS_P2;PMS_P1;PMS_P2;Temp;Humidity;BMP_temperature;BMP_pressure;BME280_temperature;BME280_humidity;BME280_pressure;Samples;Min_cycle;Max_cycle;Signal;HPM_P1;HPM_P2
2022/12/07 00:00:49;;;;;;;8.75;3.70;;;;;;;;;;5074251;28;20106;-42
2022/12/07 00:03:14;;;;;;;8.43;4.13;;;;;;;;;;5073913;28;20020;-41
2022/12/07 00:05:40;;;;;;;6.70;2.95;;;;;;;;;;5074209;28;20032;-41
2022/12/07 00:08:05;;;;;;;5.38;3.85;;;;;;;;;;5073818;28;20478;-41
2022/12/07 00:10:32;;;;;;;4.75;2.67;;;;;;;;;;5074050;28;20609;-41
2022/12/07 00:12:58;;;;;;;3.22;2.45;;;;;;;;;;5073768;28;20028;-41
2022/12/07 00:15:23;;;;;;;5.88;3.38;;;;;;;;;;5073830;28;20035;-41
2022/12/07 00:17:49;;;;;;;7.68;3.08;;;;;;;;;;5073533;28;20473;-41
2022/12/07 00:20:14;;;;;;;3.75;2.70;;;;;;;;;;5074101;28;20032;-41
2022/12/07 00:22:39;;;;;;;4.68;3.08;;;;;;;;;;5073874;28;20175;-41
2022/12/07 00:25:05;;;;;;;4.78;2.88;;;;;;;;;;5073534;28;20060;-42
2022/12/07 00:27:30;;;;;;;5.47;3.28;;;;;;;;;;5073605;28;20417;-42
2022/12/07 00:29:56;;;;;;;2.58;2.00;;;;;;;;;;5072032;28;20072;-41
2022/12/07 00:32:21;;;;;;;6.90;2.60;;;;;;;;;;5073305;28;20066;-41
2022/12/07 00:34:46;;;;;;;4.10;1.83;;;;;;;;;;5073669;28;20071;-41
2022/12/07 00:37:12;;;;;;;7.63;3.42;;;;;;;;;;5073282;28;20012;-41
2022/12/07 00:39:38;;;;;;;2.53;2.33;;;;;;;;;;5073465;28;20649;-41
2022/12/07 00:42:03;;;;;;;4.30;2.65;;;;;;;;;;5073390;28;20043;-41
2022/12/07 00:44:29;;;;;;;4.07;2.25;;;;;;;;;;5073278;28;20028;-41
2022/12/07 00:46:55;;;;;;;5.10;2.65;;;;;;;;;;5073436;28;20031;-41
2022/12/07 00:49:21;;;;;;;6.40;3.63;;;;;;;;;;5073265;28;20394;-41
2022/12/07 00:51:47;;;;;;;3.88;2.42;;;;;;;;;;5073404;28;20028;-42
2022/12/07 00:54:13;;;;;;;4.72;3.20;;;;;;;;;;5072796;28;20479;-41
2022/12/07 00:56:38;;;;;;;6.95;3.45;;;;;;;;;;5072983;28;20051;-41
2022/12/07 00:59:04;;;;;;;2.65;2.33;;;;;;;;;;5073100;28;20032;-42
2022/12/07 01:01:31;;;;;;;2.67;2.35;;;;;;;;;;5071488;28;20055;-41
2022/12/07 01:03:56;;;;;;;3.60;2.35;;;;;;;;;;5073123;28;20403;-41
2022/12/07 01:06:22;;;;;;;2.55;2.13;;;;;;;;;;5073077;28;20021;-42
2022/12/07 01:08:48;;;;;;;6.20;2.25;;;;;;;;;;5072594;28;20491;-41
2022/12/07 01:11:15;;;;;;;2.97;2.03;;;;;;;;;;5072680;28;20031;-41
2022/12/07 01:13:41;;;;;;;2.95;2.58;;;;;;;;;;5072499;28;20032;-41
2022/12/07 01:16:06;;;;;;;5.53;3.20;;;;;;;;;;5072520;28;20030;-41
2022/12/07 01:18:33;;;;;;;3.38;2.83;;;;;;;;;;5072590;28;20032;-41
2022/12/07 01:21:01;;;;;;;4.38;2.63;;;;;;;;;;5072327;28;20502;-41
2022/12/07 01:23:27;;;;;;;5.80;3.20;;;;;;;;;;5072664;28;20024;-41
2022/12/07 01:25:56;;;;;;;4.13;2.85;;;;;;;;;;5072545;28;20111;-41
2022/12/07 01:28:22;;;;;;;4.07;2.85;;;;;;;;;;5072458;28;20406;-41
2022/12/07 01:31:07;;;;;;;4.88;3.10;;;;;;;;;;5072555;28;20035;-41
2022/12/07 01:33:34;;;;;;;3.03;2.20;;;;;;;;;;5071785;28;20036;-41
2022/12/07 01:36:28;;;;;;;5.65;2.33;;;;;;;;;;5072007;28;20447;-41
2022/12/07 01:38:56;;;;;;;4.05;2.75;;;;;;;;;;5058041;28;20066;-41
2022/12/07 01:41:22;;;;;;;4.40;2.03;;;;;;;;;;5070635;28;20028;-41
2022/12/07 01:44:05;;;;;;;6.03;2.40;;;;;;;;;;5071524;28;20040;-41
2022/12/07 01:46:31;;;;;;;2.97;1.90;;;;;;;;;;5072003;28;20036;-41
2022/12/07 01:48:56;;;;;;;2.97;1.83;;;;;;;;;;5071818;28;20028;-41
2022/12/07 01:51:21;;;;;;;3.33;2.80;;;;;;;;;;5071827;28;20501;-42
2022/12/07 01:53:47;;;;;;;5.43;3.20;;;;;;;;;;5071827;28;20028;-41
2022/12/07 01:56:15;;;;;;;3.25;2.67;;;;;;;;;;5071982;28;20051;-41
2022/12/07 01:58:40;;;;;;;4.47;2.20;;;;;;;;;;5071788;28;20016;-41
2022/12/07 02:01:06;;;;;;;6.70;3.10;;;;;;;;;;5072026;28;20032;-41
2022/12/07 02:03:34;;;;;;;3.50;2.47;;;;;;;;;;5070307;28;20429;-41
2022/12/07 02:06:00;;;;;;;4.05;2.58;;;;;;;;;;5071947;28;20024;-41
2022/12/07 02:08:25;;;;;;;4.15;2.13;;;;;;;;;;5071519;28;20528;-42
2022/12/07 02:10:50;;;;;;;4.07;2.35;;;;;;;;;;5071514;28;20498;-41
2022/12/07 02:13:19;;;;;;;3.03;2.22;;;;;;;;;;5071622;28;20027;-41
2022/12/07 02:16:03;;;;;;;4.75;2.65;;;;;;;;;;5071599;28;20029;-41
2022/12/07 02:18:31;;;;;;;3.83;2.38;;;;;;;;;;5072069;28;20059;-41
2022/12/07 02:21:00;;;;;;;4.75;2.47;;;;;;;;;;5071447;28;20099;-42
2022/12/07 02:23:32;;;;;;;4.82;2.58;;;;;;;;;;5071735;28;20028;-41
2022/12/07 02:26:12;;;;;;;4.28;2.58;;;;;;;;;;5071335;28;20033;-41
2022/12/07 02:29:04;;;;;;;5.88;3.35;;;;;;;;;;5071419;28;20067;-41
2022/12/07 02:31:30;;;;;;;2.90;1.77;;;;;;;;;;5071382;28;20040;-41
2022/12/07 02:34:05;;;;;;;4.55;2.05;;;;;;;;;;5071498;28;20027;-41
2022/12/07 02:36:32;;;;;;;4.80;1.85;;;;;;;;;;5071437;28;20475;-41
2022/12/07 02:39:05;;;;;;;2.58;1.77;;;;;;;;;;5071302;28;20039;-41
2022/12/07 02:41:33;;;;;;;8.93;2.70;;;;;;;;;;5071339;28;20314;-41
2022/12/07 02:44:01;;;;;;;4.13;2.08;;;;;;;;;;5071473;28;20036;-42
2022/12/07 02:46:34;;;;;;;4.97;2.85;;;;;;;;;;5071179;28;20025;-41
2022/12/07 02:49:00;;;;;;;4.15;2.58;;;;;;;;;;5071140;28;20052;-41
2022/12/07 02:51:26;;;;;;;3.90;2.42;;;;;;;;;;5071384;28;20029;-41
2022/12/07 02:53:51;;;;;;;4.30;2.60;;;;;;;;;;5071026;28;20410;-42
2022/12/07 02:56:16;;;;;;;2.85;1.55;;;;;;;;;;5072680;28;20067;-41
2022/12/07 02:58:50;;;;;;;3.95;2.17;;;;;;;;;;5075310;28;20563;-41
2022/12/07 03:01:25;;;;;;;6.72;3.03;;;;;;;;;;5075385;28;20418;-41
2022/12/07 03:03:55;;;;;;;2.58;2.15;;;;;;;;;;5075295;28;20032;-41
2022/12/07 03:06:43;;;;;;;2.30;1.45;;;;;;;;;;5074726;28;20058;-41
2022/12/07 03:09:23;;;;;;;4.97;2.20;;;;;;;;;;5075255;28;20071;-41
2022/12/07 03:11:50;;;;;;;4.07;2.05;;;;;;;;;;5074975;28;20586;-41
2022/12/07 03:14:24;;;;;;;3.58;2.17;;;;;;;;;;5074873;28;20029;-42
2022/12/07 03:16:53;;;;;;;9.98;2.40;;;;;;;;;;5074801;28;20021;-41
2022/12/07 03:19:20;;;;;;;2.97;1.90;;;;;;;;;;5074904;28;20537;-42
2022/12/07 03:21:52;;;;;;;4.10;2.17;;;;;;;;;;5074923;28;20452;-41
2022/12/07 03:24:20;;;;;;;5.72;2.25;;;;;;;;;;5074775;28;20033;-41
2022/12/07 03:26:50;;;;;;;4.70;2.15;;;;;;;;;;5074897;28;20021;-41
2022/12/07 03:29:22;;;;;;;2.85;2.03;;;;;;;;;;5074597;28;20434;-41
2022/12/07 03:31:53;;;;;;;5.60;2.22;;;;;;;;;;5074563;28;20025;-41
2022/12/07 03:34:24;;;;;;;4.63;2.33;;;;;;;;;;5074568;28;20098;-41
2022/12/07 03:36:53;;;;;;;10.25;1.88;;;;;;;;;;5074663;28;20036;-41
2022/12/07 03:39:31;;;;;;;4.82;2.35;;;;;;;;;;5074627;28;20032;-41
2022/12/07 03:41:58;;;;;;;4.50;2.33;;;;;;;;;;5074570;28;20033;-41
2022/12/07 03:44:24;;;;;;;5.00;2.22;;;;;;;;;;5073183;28;20052;-41
2022/12/07 03:46:52;;;;;;;4.03;1.75;;;;;;;;;;5074428;28;20063;-42
2022/12/07 03:49:24;;;;;;;3.63;2.10;;;;;;;;;;5074407;28;20040;-41
2022/12/07 03:52:08;;;;;;;2.47;1.67;;;;;;;;;;5074525;28;20021;-41
2022/12/07 03:54:37;;;;;;;6.80;3.10;;;;;;;;;;5073950;28;20117;-43
2022/12/07 03:57:03;;;;;;;2.28;1.95;;;;;;;;;;5074314;28;20024;-41
2022/12/07 03:59:29;;;;;;;3.53;2.85;;;;;;;;;;5074265;28;20436;-41
2022/12/07 04:01:56;;;;;;;2.33;1.88;;;;;;;;;;5074259;28;20013;-41
2022/12/07 04:04:22;;;;;;;3.35;2.53;;;;;;;;;;5073966;28;20085;-42
2022/12/07 04:06:48;;;;;;;3.67;1.85;;;;;;;;;;5073444;28;20027;-41
2022/12/07 04:09:14;;;;;;;4.43;1.30;;;;;;;;;;5073823;28;20036;-41
2022/12/07 04:11:39;;;;;;;3.40;1.70;;;;;;;;;;5073984;28;20371;-41
2022/12/07 04:14:20;;;;;;;6.38;1.98;;;;;;;;;;5073842;28;20032;-41
2022/12/07 04:16:48;;;;;;;2.80;1.45;;;;;;;;;;5073841;28;20020;-41
2022/12/07 04:19:14;;;;;;;2.40;2.05;;;;;;;;;;5073940;28;20028;-41
2022/12/07 04:21:40;;;;;;;5.45;2.13;;;;;;;;;;5073936;28;20025;-41
2022/12/07 04:24:05;;;;;;;2.55;1.80;;;;;;;;;;5073876;28;20516;-41
2022/12/07 04:26:31;;;;;;;2.28;1.42;;;;;;;;;;5073795;28;20501;-41
2022/12/07 04:28:56;;;;;;;5.13;2.40;;;;;;;;;;5073377;28;20028;-41
2022/12/07 04:31:21;;;;;;;2.83;1.92;;;;;;;;;;5073596;28;20029;-42
2022/12/07 04:33:47;;;;;;;2.90;1.73;;;;;;;;;;5073438;28;20024;-41
2022/12/07 04:36:12;;;;;;;2.92;2.00;;;;;;;;;;5073294;28;20028;-41
2022/12/07 04:38:37;;;;;;;5.28;2.33;;;;;;;;;;5073684;28;20030;-41
2022/12/07 04:41:06;;;;;;;2.78;1.63;;;;;;;;;;5073455;28;20040;-41
2022/12/07 04:43:32;;;;;;;1.48;1.35;;;;;;;;;;5073438;28;20080;-41
2022/12/07 04:45:57;;;;;;;1.58;1.20;;;;;;;;;;5073143;28;20124;-41
2022/12/07 04:48:23;;;;;;;2.88;1.40;;;;;;;;;;5073021;28;20043;-42
2022/12/07 04:50:49;;;;;;;3.45;1.70;;;;;;;;;;5073181;28;20037;-41
2022/12/07 04:53:14;;;;;;;2.85;1.50;;;;;;;;;;5073118;28;20041;-41
2022/12/07 04:55:40;;;;;;;4.95;2.08;;;;;;;;;;5072973;28;20060;-42
2022/12/07 04:58:05;;;;;;;4.65;1.67;;;;;;;;;;5072955;28;20060;-41
2022/12/07 05:00:31;;;;;;;2.88;1.95;;;;;;;;;;5072849;28;20040;-42
2022/12/07 05:02:56;;;;;;;3.30;1.67;;;;;;;;;;5072879;28;20051;-41
2022/12/07 05:05:22;;;;;;;2.08;1.33;;;;;;;;;;5071579;28;20043;-41
2022/12/07 05:07:47;;;;;;;2.05;1.30;;;;;;;;;;5072761;28;20067;-41
2022/12/07 05:10:12;;;;;;;1.40;1.30;;;;;;;;;;5072957;28;20043;-41
2022/12/07 05:12:38;;;;;;;2.45;1.38;;;;;;;;;;5072662;28;20024;-42
2022/12/07 05:15:04;;;;;;;3.50;2.80;;;;;;;;;;5072777;28;20111;-41
2022/12/07 05:17:29;;;;;;;2.40;1.65;;;;;;;;;;5073164;28;20383;-41
2022/12/07 05:19:54;;;;;;;3.15;1.67;;;;;;;;;;5071808;28;20037;-41
2022/12/07 05:22:20;;;;;;;2.67;1.40;;;;;;;;;;5072431;28;20017;-41
2022/12/07 05:24:45;;;;;;;2.75;1.42;;;;;;;;;;5072367;28;20043;-42
2022/12/07 05:27:10;;;;;;;5.38;1.77;;;;;;;;;;5072315;28;20024;-41
2022/12/07 05:29:35;;;;;;;2.88;1.90;;;;;;;;;;5072289;28;20047;-41
2022/12/07 05:32:01;;;;;;;1.10;1.00;;;;;;;;;;5072172;28;20025;-41
2022/12/07 05:34:26;;;;;;;2.45;1.40;;;;;;;;;;5072342;28;20034;-41
2022/12/07 05:36:52;;;;;;;4.40;2.08;;;;;;;;;;5072145;28;20458;-41
2022/12/07 05:39:17;;;;;;;3.20;1.67;;;;;;;;;;5072201;28;20059;-41
2022/12/07 05:44:26;;;;;;;1.75;1.48;;;;;;;;;;5072045;28;20036;-41
2022/12/07 05:46:52;;;;;;;3.33;1.35;;;;;;;;;;5072297;28;20039;-41
2022/12/07 05:49:17;;;;;;;4.20;1.92;;;;;;;;;;5072145;28;20044;-41
2022/12/07 05:51:42;;;;;;;3.35;2.08;;;;;;;;;;5071970;28;20065;-41
2022/12/07 05:54:08;;;;;;;1.88;1.25;;;;;;;;;;5071752;28;20117;-41
2022/12/07 05:56:33;;;;;;;3.03;1.77;;;;;;;;;;5072115;28;20036;-41
2022/12/07 06:01:43;;;;;;;4.88;2.30;;;;;;;;;;5071776;28;20518;-42
2022/12/07 06:04:08;;;;;;;3.40;1.63;;;;;;;;;;5071722;28;20111;-41
2022/12/07 06:06:33;;;;;;;2.03;1.63;;;;;;;;;;5071901;28;20036;-41
2022/12/07 06:08:59;;;;;;;4.45;1.92;;;;;;;;;;5071539;28;20395;-41
2022/12/07 06:14:08;;;;;;;3.28;1.92;;;;;;;;;;5071579;28;20483;-41
2022/12/07 06:16:34;;;;;;;2.15;1.40;;;;;;;;;;5071884;28;20018;-41
2022/12/07 06:19:00;;;;;;;2.65;1.50;;;;;;;;;;5071754;28;20033;-41
2022/12/07 06:21:26;;;;;;;2.50;1.48;;;;;;;;;;5070293;28;20494;-41
2022/12/07 06:23:52;;;;;;;1.70;1.40;;;;;;;;;;5071528;28;20028;-42
2022/12/07 06:26:17;;;;;;;1.90;1.35;;;;;;;;;;5071494;28;20059;-41
2022/12/07 06:28:43;;;;;;;2.20;1.95;;;;;;;;;;5036902;28;20067;-41
2022/12/07 06:31:08;;;;;;;3.88;2.03;;;;;;;;;;5071080;28;20497;-41
2022/12/07 06:33:34;;;;;;;5.13;1.15;;;;;;;;;;5071177;28;20036;-41
2022/12/07 06:36:00;;;;;;;3.35;1.67;;;;;;;;;;5070192;28;20024;-41
2022/12/07 06:38:25;;;;;;;1.80;1.10;;;;;;;;;;5070103;28;20032;-41
2022/12/07 06:40:51;;;;;;;2.60;1.42;;;;;;;;;;5071543;28;20026;-41
2022/12/07 06:43:16;;;;;;;1.90;0.90;;;;;;;;;;5071243;28;20028;-41
2022/12/07 06:45:42;;;;;;;2.53;1.70;;;;;;;;;;5071380;28;20047;-41
2022/12/07 06:48:08;;;;;;;4.40;2.30;;;;;;;;;;5071026;28;20032;-41
2022/12/07 06:50:33;;;;;;;3.78;1.65;;;;;;;;;;5071527;28;20032;-41
2022/12/07 06:52:59;;;;;;;4.18;1.52;;;;;;;;;;5071134;28;20060;-41
2022/12/07 06:55:24;;;;;;;1.60;1.25;;;;;;;;;;5070942;28;20060;-41
2022/12/07 06:57:50;;;;;;;4.40;2.42;;;;;;;;;;5071425;28;20052;-41
2022/12/07 07:00:16;;;;;;;2.63;1.90;;;;;;;;;;5071047;28;20040;-41
2022/12/07 07:02:41;;;;;;;2.47;1.30;;;;;;;;;;5071256;28;20039;-41
2022/12/07 07:05:06;;;;;;;3.05;1.38;;;;;;;;;;5071128;28;20020;-41
2022/12/07 07:07:32;;;;;;;3.85;2.17;;;;;;;;;;5070978;28;20565;-41
2022/12/07 07:09:57;;;;;;;1.70;1.20;;;;;;;;;;5070879;28;20028;-42
2022/12/07 07:12:23;;;;;;;1.85;1.55;;;;;;;;;;5071271;28;20467;-41
2022/12/07 07:14:48;;;;;;;3.22;1.80;;;;;;;;;;5070881;28;20085;-41
2022/12/07 07:17:14;;;;;;;10.02;4.20;;;;;;;;;;5070870;28;20029;-41
2022/12/07 07:19:39;;;;;;;4.25;2.30;;;;;;;;;;5070923;28;20020;-42
2022/12/07 07:22:04;;;;;;;2.75;2.28;;;;;;;;;;5070728;28;20032;-41
2022/12/07 07:24:30;;;;;;;2.50;1.35;;;;;;;;;;5070937;28;20020;-41
2022/12/07 07:26:55;;;;;;;3.97;2.33;;;;;;;;;;5070707;28;20032;-41
2022/12/07 07:29:21;;;;;;;6.75;2.25;;;;;;;;;;5070840;28;20125;-41
2022/12/07 07:31:46;;;;;;;2.50;1.92;;;;;;;;;;5070769;28;20028;-41
2022/12/07 07:34:12;;;;;;;5.13;2.58;;;;;;;;;;5070652;28;20104;-41
2022/12/07 07:36:37;;;;;;;6.40;2.03;;;;;;;;;;5070883;28;20032;-42
2022/12/07 07:39:03;;;;;;;3.65;1.92;;;;;;;;;;5070561;28;20082;-41
2022/12/07 07:41:29;;;;;;;3.78;2.17;;;;;;;;;;5070841;28;20039;-41
2022/12/07 07:43:54;;;;;;;1.67;0.93;;;;;;;;;;5074599;28;20048;-41
2022/12/07 07:46:19;;;;;;;3.28;1.85;;;;;;;;;;5074338;28;20371;-41
2022/12/07 07:48:45;;;;;;;2.85;2.03;;;;;;;;;;5074321;28;20532;-41
2022/12/07 07:51:11;;;;;;;3.00;1.80;;;;;;;;;;5074109;28;20025;-41
2022/12/07 07:53:36;;;;;;;2.83;1.98;;;;;;;;;;5074291;28;20470;-42
2022/12/07 07:56:02;;;;;;;2.17;1.20;;;;;;;;;;5072837;28;20399;-41
2022/12/07 07:58:27;;;;;;;2.33;1.40;;;;;;;;;;5074029;28;20391;-41
2022/12/07 08:00:53;;;;;;;2.95;1.30;;;;;;;;;;5074126;28;20044;-41
2022/12/07 08:03:18;;;;;;;2.70;1.60;;;;;;;;;;5074007;28;20024;-41
2022/12/07 08:05:44;;;;;;;3.70;1.95;;;;;;;;;;5072723;28;20032;-41
2022/12/07 08:08:09;;;;;;;2.10;1.98;;;;;;;;;;5074152;28;20027;-41
2022/12/07 08:10:35;;;;;;;1.30;1.17;;;;;;;;;;5073909;28;20502;-41
2022/12/07 08:13:13;;;;;;;4.68;1.65;;;;;;;;;;5074039;28;20039;-41
2022/12/07 08:15:43;;;;;;;6.53;2.83;;;;;;;;;;5073643;28;20040;-42
2022/12/07 08:18:08;;;;;;;2.42;1.50;;;;;;;;;;5073822;28;20626;-41
2022/12/07 08:20:35;;;;;;;1.85;1.33;;;;;;;;;;5073667;28;20025;-41
2022/12/07 08:23:00;;;;;;;2.58;1.52;;;;;;;;;;5073612;28;20017;-41
2022/12/07 08:25:25;;;;;;;2.60;1.50;;;;;;;;;;5073737;28;20029;-42
2022/12/07 08:27:51;;;;;;;2.15;1.27;;;;;;;;;;5072226;28;20463;-41
2022/12/07 08:30:17;;;;;;;2.92;1.27;;;;;;;;;;5073707;28;20036;-42
2022/12/07 08:32:44;;;;;;;1.52;1.30;;;;;;;;;;5073541;28;20034;-41
2022/12/07 08:35:09;;;;;;;6.00;1.33;;;;;;;;;;5073261;28;20540;-41
2022/12/07 08:37:35;;;;;;;1.65;1.35;;;;;;;;;;5073949;28;20064;-42
2022/12/07 08:40:00;;;;;;;3.03;1.50;;;;;;;;;;5073265;28;20493;-41
2022/12/07 08:42:29;;;;;;;2.33;1.70;;;;;;;;;;5073315;28;20017;-41
2022/12/07 08:44:56;;;;;;;2.15;1.48;;;;;;;;;;5073190;28;20063;-41
2022/12/07 08:47:23;;;;;;;1.65;1.55;;;;;;;;;;5071944;28;20081;-42
2022/12/07 08:49:50;;;;;;;2.20;1.52;;;;;;;;;;5073066;28;20041;-41
2022/12/07 08:52:15;;;;;;;5.75;2.20;;;;;;;;;;5072954;28;20025;-41
2022/12/07 08:54:41;;;;;;;4.85;2.17;;;;;;;;;;5072973;28;20057;-41
2022/12/07 08:57:07;;;;;;;3.47;1.80;;;;;;;;;;5071672;28;20021;-41
2022/12/07 08:59:34;;;;;;;2.08;1.48;;;;;;;;;;5072877;28;20068;-41
2022/12/07 09:02:00;;;;;;;3.05;1.75;;;;;;;;;;5072814;28;20023;-41
2022/12/07 09:04:26;;;;;;;2.22;1.00;;;;;;;;;;5072888;28;20029;-43
2022/12/07 09:06:51;;;;;;;2.97;1.15;;;;;;;;;;5072879;28;20417;-41
2022/12/07 09:09:17;;;;;;;2.55;1.40;;;;;;;;;;5072711;28;20040;-41
2022/12/07 09:11:44;;;;;;;1.45;1.35;;;;;;;;;;5072642;28;20067;-42
2022/12/07 09:14:09;;;;;;;1.40;1.08;;;;;;;;;;5072670;28;20048;-41
2022/12/07 09:16:35;;;;;;;2.40;2.00;;;;;;;;;;5072605;28;20013;-41
2022/12/07 09:19:00;;;;;;;3.50;1.48;;;;;;;;;;5072469;28;20025;-42
2022/12/07 09:21:26;;;;;;;1.77;1.42;;;;;;;;;;5072875;28;20028;-42
2022/12/07 09:23:51;;;;;;;4.07;1.52;;;;;;;;;;5072647;28;20017;-41
2022/12/07 09:26:16;;;;;;;1.88;1.33;;;;;;;;;;5072749;28;20426;-41
2022/12/07 09:28:42;;;;;;;4.05;1.50;;;;;;;;;;5072357;28;20025;-41
2022/12/07 09:31:08;;;;;;;2.15;1.10;;;;;;;;;;5072187;28;20070;-41
2022/12/07 09:33:33;;;;;;;2.00;1.27;;;;;;;;;;5072640;28;20032;-41
2022/12/07 09:35:58;;;;;;;3.92;0.95;;;;;;;;;;5072415;28;20355;-41
2022/12/07 09:38:26;;;;;;;2.90;1.58;;;;;;;;;;5072482;28;20028;-42
2022/12/07 09:40:52;;;;;;;3.38;1.63;;;;;;;;;;5072203;28;20028;-41
2022/12/07 09:43:19;;;;;;;3.95;2.20;;;;;;;;;;5072050;28;20054;-41
2022/12/07 09:45:47;;;;;;;1.10;1.00;;;;;;;;;;5072262;28;20028;-41
2022/12/07 09:48:20;;;;;;;1.42;1.27;;;;;;;;;;5072245;28;20087;-41
2022/12/07 09:50:46;;;;;;;1.90;1.33;;;;;;;;;;5072227;28;20664;-41
2022/12/07 09:53:21;;;;;;;2.05;1.55;;;;;;;;;;5070600;28;20035;-42
2022/12/07 09:55:46;;;;;;;1.00;1.00;;;;;;;;;;5071735;28;20050;-41
2022/12/07 09:58:17;;;;;;;3.40;0.95;;;;;;;;;;5071771;28;20107;-42
2022/12/07 10:00:43;;;;;;;2.60;2.30;;;;;;;;;;5071959;28;20032;-41
2022/12/07 10:03:11;;;;;;;3.10;1.42;;;;;;;;;;5071777;28;20079;-41
2022/12/07 10:05:49;;;;;;;2.78;1.27;;;;;;;;;;5071495;28;20029;-41
2022/12/07 10:08:17;;;;;;;4.15;1.15;;;;;;;;;;5071645;28;20028;-41
2022/12/07 10:10:43;;;;;;;1.70;1.52;;;;;;;;;;5070359;28;20078;-45
2022/12/07 10:13:10;;;;;;;2.50;1.15;;;;;;;;;;5071583;28;20035;-42
2022/12/07 10:15:56;;;;;;;2.22;1.60;;;;;;;;;;5071645;28;20536;-42
2022/12/07 10:18:27;;;;;;;1.05;1.02;;;;;;;;;;5071989;28;20390;-41
2022/12/07 10:21:10;;;;;;;3.97;1.58;;;;;;;;;;5071473;28;20475;-42
2022/12/07 10:23:37;;;;;;;3.85;1.75;;;;;;;;;;5071842;28;20036;-41
2022/12/07 10:26:21;;;;;;;3.05;1.63;;;;;;;;;;5071352;28;20040;-42
2022/12/07 10:28:48;;;;;;;1.45;1.35;;;;;;;;;;5071337;28;20032;-41
2022/12/07 10:31:21;;;;;;;2.45;1.05;;;;;;;;;;5071256;28;20028;-42
2022/12/07 10:33:50;;;;;;;1.77;1.17;;;;;;;;;;5070482;28;20031;-41
2022/12/07 10:36:18;;;;;;;3.97;1.27;;;;;;;;;;5071289;28;20027;-42
2022/12/07 10:38:45;;;;;;;2.25;1.63;;;;;;;;;;5071388;28;20555;-41
2022/12/07 10:41:11;;;;;;;1.73;1.02;;;;;;;;;;5071421;28;20103;-42
2022/12/07 10:43:37;;;;;;;2.97;1.60;;;;;;;;;;5071365;28;20115;-41
2022/12/07 10:46:21;;;;;;;1.98;0.98;;;;;;;;;;5071165;28;20467;-41
2022/12/07 10:48:53;;;;;;;2.22;1.30;;;;;;;;;;5071208;28;20075;-41
2022/12/07 10:51:18;;;;;;;1.20;1.02;;;;;;;;;;5071002;28;20039;-42
2022/12/07 10:53:48;;;;;;;0.85;0.80;;;;;;;;;;5070947;28;20045;-42
2022/12/07 10:56:26;;;;;;;0.98;0.77;;;;;;;;;;5071062;28;20453;-42
2022/12/07 10:58:52;;;;;;;2.03;0.95;;;;;;;;;;5071445;28;20067;-43
2022/12/07 11:01:26;;;;;;;2.28;1.48;;;;;;;;;;5071270;28;20060;-41
2022/12/07 11:04:10;;;;;;;2.33;0.85;;;;;;;;;;5071052;28;20029;-42
2022/12/07 11:06:41;;;;;;;1.50;0.80;;;;;;;;;;5053062;28;20032;-41
2022/12/07 11:09:16;;;;;;;2.22;1.08;;;;;;;;;;5070927;28;20044;-41
2022/12/07 11:11:47;;;;;;;2.10;1.48;;;;;;;;;;5070960;28;20031;-41
2022/12/07 11:14:18;;;;;;;0.93;0.82;;;;;;;;;;5071013;28;20492;-41
2022/12/07 11:16:53;;;;;;;0.80;0.80;;;;;;;;;;5071556;28;20032;-42
2022/12/07 11:19:25;;;;;;;1.70;0.95;;;;;;;;;;5074758;28;20032;-41
2022/12/07 11:21:50;;;;;;;5.22;0.80;;;;;;;;;;5075104;28;20510;-41
2022/12/07 11:24:17;;;;;;;0.93;0.80;;;;;;;;;;5074791;28;20061;-41
2022/12/07 11:26:52;;;;;;;0.55;0.55;;;;;;;;;;5074706;28;20017;-42
2022/12/07 11:29:17;;;;;;;1.77;1.25;;;;;;;;;;5074845;28;20094;-43
2022/12/07 11:32:07;;;;;;;0.68;0.60;;;;;;;;;;5074890;28;20406;-45
2022/12/07 11:34:33;;;;;;;0.43;0.40;;;;;;;;;;5073733;28;20047;-42
2022/12/07 11:37:00;;;;;;;0.82;0.63;;;;;;;;;;5074511;28;20492;-42
2022/12/07 11:39:38;;;;;;;0.63;0.60;;;;;;;;;;5074504;28;20040;-42
2022/12/07 11:42:09;;;;;;;1.08;0.77;;;;;;;;;;5074584;28;20371;-42
2022/12/07 11:44:47;;;;;;;1.98;1.38;;;;;;;;;;5074426;28;20502;-41
2022/12/07 11:47:12;;;;;;;1.23;0.95;;;;;;;;;;5074151;28;20459;-42
2022/12/07 11:49:41;;;;;;;10.75;1.35;;;;;;;;;;5074598;28;20043;-42
2022/12/07 11:52:09;;;;;;;1.05;0.73;;;;;;;;;;5074232;28;20036;-41
2022/12/07 11:54:39;;;;;;;0.73;0.57;;;;;;;;;;5074080;28;20052;-42
2022/12/07 11:57:10;;;;;;;0.47;0.47;;;;;;;;;;5074433;28;20075;-42
2022/12/07 11:59:45;;;;;;;1.17;0.75;;;;;;;;;;5072827;28;20139;-41
2022/12/07 12:02:24;;;;;;;1.42;1.00;;;;;;;;;;5074002;28;20033;-41
2022/12/07 12:04:49;;;;;;;1.70;0.82;;;;;;;;;;5074097;28;20032;-42
2022/12/07 12:07:17;;;;;;;0.55;0.55;;;;;;;;;;5074277;28;20036;-42
2022/12/07 12:10:04;;;;;;;0.75;0.73;;;;;;;;;;5073869;28;20041;-42
2022/12/07 12:12:42;;;;;;;0.20;0.20;;;;;;;;;;5073907;28;20029;-41
2022/12/07 12:15:07;;;;;;;0.80;0.50;;;;;;;;;;5073843;28;20111;-41
2022/12/07 12:17:41;;;;;;;1.45;0.88;;;;;;;;;;5073924;28;20415;-42
2022/12/07 12:20:07;;;;;;;1.02;0.75;;;;;;;;;;5073997;28;20107;-42
2022/12/07 12:22:40;;;;;;;1.05;0.95;;;;;;;;;;5074038;28;20169;-42
2022/12/07 12:25:15;;;;;;;1.25;0.90;;;;;;;;;;5073561;28;20052;-41
2022/12/07 12:27:45;;;;;;;0.90;0.68;;;;;;;;;;5073246;28;20528;-42
2022/12/07 12:30:46;;;;;;;0.82;0.70;;;;;;;;;;5073322;28;20105;-42
2022/12/07 12:33:38;;;;;;;0.50;0.50;;;;;;;;;;5031053;28;20033;-41
2022/12/07 12:36:25;;;;;;;0.50;0.40;;;;;;;;;;5069131;28;20041;-41
2022/12/07 12:39:06;;;;;;;1.10;0.52;;;;;;;;;;5073539;28;20021;-41
2022/12/07 12:42:05;;;;;;;1.48;1.08;;;;;;;;;;5072113;28;20036;-42
2022/12/07 12:44:29;;;;;;;0.88;0.88;;;;;;;;;;5073209;28;20033;-41
2022/12/07 12:47:01;;;;;;;1.83;0.95;;;;;;;;;;5073369;28;20028;-42
2022/12/07 12:49:32;;;;;;;2.35;0.70;;;;;;;;;;5071872;28;20872;-42
2022/12/07 12:51:59;;;;;;;0.40;0.40;;;;;;;;;;5073177;28;20095;-41
2022/12/07 12:54:26;;;;;;;0.57;0.45;;;;;;;;;;5072944;28;20098;-41
2022/12/07 12:57:00;;;;;;;0.60;0.60;;;;;;;;;;5072174;28;20028;-42
2022/12/07 12:59:37;;;;;;;1.95;0.80;;;;;;;;;;5073248;28;20033;-41
2022/12/07 13:02:22;;;;;;;0.47;0.40;;;;;;;;;;5073000;28;20427;-41
2022/12/07 13:04:47;;;;;;;1.45;0.88;;;;;;;;;;5073198;28;20482;-41
2022/12/07 13:07:13;;;;;;;0.95;0.63;;;;;;;;;;5072822;28;20036;-42
2022/12/07 13:09:42;;;;;;;1.75;1.13;;;;;;;;;;5072922;28;20047;-42
2022/12/07 13:12:15;;;;;;;0.60;0.60;;;;;;;;;;5072565;28;20018;-42
2022/12/07 13:14:42;;;;;;;3.35;0.65;;;;;;;;;;5071437;28;20383;-41
2022/12/07 13:17:12;;;;;;;0.65;0.63;;;;;;;;;;5072993;28;20089;-41
2022/12/07 13:19:40;;;;;;;1.55;1.30;;;;;;;;;;5071332;28;20505;-41
2022/12/07 13:22:29;;;;;;;1.02;0.93;;;;;;;;;;5072447;28;20024;-42
2022/12/07 13:25:02;;;;;;;0.77;0.77;;;;;;;;;;5066749;28;20040;-41
2022/12/07 13:27:28;;;;;;;1.00;0.77;;;;;;;;;;5072426;28;20035;-42
2022/12/07 13:29:56;;;;;;;1.35;0.85;;;;;;;;;;5072342;28;20071;-41
2022/12/07 13:32:25;;;;;;;1.52;1.15;;;;;;;;;;5072446;28;20034;-42
2022/12/07 13:34:51;;;;;;;2.25;1.02;;;;;;;;;;5072593;28;20034;-41
2022/12/07 13:37:25;;;;;;;0.52;0.52;;;;;;;;;;5072531;28;20104;-41
2022/12/07 13:39:51;;;;;;;0.73;0.73;;;;;;;;;;5071790;28;20135;-41
2022/12/07 13:42:24;;;;;;;0.80;0.80;;;;;;;;;;5072065;28;20024;-41
2022/12/07 13:44:50;;;;;;;;;;;;;;;;;;5072589;28;20036;-41
2022/12/07 13:47:18;;;;;;;0.98;0.50;;;;;;;;;;5072212;28;19961;-41
2022/12/07 13:49:54;;;;;;;0.57;0.50;;;;;;;;;;5071973;28;20037;-41
2022/12/07 13:52:19;;;;;;;0.70;0.55;;;;;;;;;;5070644;28;20169;-42
2022/12/07 13:54:46;;;;;;;1.23;0.70;;;;;;;;;;5071779;28;20541;-42
2022/12/07 13:57:12;;;;;;;0.70;0.65;;;;;;;;;;5071900;28;20078;-41
2022/12/07 13:59:38;;;;;;;0.55;0.55;;;;;;;;;;5071899;28;20024;-42
2022/12/07 14:02:17;;;;;;;0.73;0.73;;;;;;;;;;5071686;28;20037;-41
2022/12/07 14:04:43;;;;;;;0.93;0.70;;;;;;;;;;5071925;28;20060;-42
2022/12/07 14:07:19;;;;;;;1.83;0.60;;;;;;;;;;5070554;28;20477;-41
2022/12/07 14:09:53;;;;;;;0.93;0.93;;;;;;;;;;5071592;28;20036;-42
2022/12/07 14:12:19;;;;;;;0.68;0.65;;;;;;;;;;5071799;28;20089;-41
2022/12/07 14:14:47;;;;;;;0.55;0.50;;;;;;;;;;5071630;28;20467;-41
2022/12/07 14:17:16;;;;;;;0.68;0.60;;;;;;;;;;5071459;28;20116;-41
2022/12/07 14:19:49;;;;;;;0.95;0.70;;;;;;;;;;5071605;28;20021;-41
2022/12/07 14:22:38;;;;;;;0.50;0.50;;;;;;;;;;5071388;28;20032;-42
2022/12/07 14:25:12;;;;;;;0.50;0.50;;;;;;;;;;5065892;28;20040;-42
2022/12/07 14:27:38;;;;;;;0.30;0.30;;;;;;;;;;5071845;28;20036;-41
2022/12/07 14:30:04;;;;;;;0.63;0.60;;;;;;;;;;5071154;28;20036;-42
2022/12/07 14:32:31;;;;;;;0.70;0.60;;;;;;;;;;5071485;28;20029;-41
2022/12/07 14:35:10;;;;;;;0.40;0.40;;;;;;;;;;5071404;28;20028;-42
2022/12/07 14:37:36;;;;;;;1.55;1.13;;;;;;;;;;5071437;28;20491;-41
2022/12/07 14:40:01;;;;;;;0.52;0.52;;;;;;;;;;5071269;28;20032;-41
2022/12/07 14:42:28;;;;;;;2.35;1.25;;;;;;;;;;5071698;28;20024;-41
2022/12/07 14:44:54;;;;;;;0.30;0.30;;;;;;;;;;5071511;28;20107;-41
2022/12/07 14:47:19;;;;;;;0.75;0.75;;;;;;;;;;5071120;28;20111;-41
2022/12/07 14:49:45;;;;;;;1.50;0.45;;;;;;;;;;5071523;28;20043;-41
2022/12/07 14:52:16;;;;;;;1.10;0.82;;;;;;;;;;5076554;28;20033;-41
2022/12/07 14:54:42;;;;;;;0.40;0.40;;;;;;;;;;5077830;28;20051;-41
2022/12/07 14:57:11;;;;;;;0.57;0.57;;;;;;;;;;5077823;28;20035;-41
2022/12/07 14:59:37;;;;;;;1.00;0.73;;;;;;;;;;5077745;28;20020;-41